Coniston, Canada
Current Conditions -  °F | °C
As of 6:00 AM on Friday 24 Oct 2014 (Local Time) from CYSB Reporting Station
Clear Clear  
Wind Chill: -5°   Ceiling: Unl
Heat Index: -1°   Visibility: 15mi
Dew Point: -2°   Wind: 7mph
Humidity: 93%   Direction: 40°NE
Pressure: 30"   Gusts: NA
Location:  46.49°N, 80.85°W
Report Text: CYSB 241000Z 04006KT 15SM SKC M01/M02 A3000 RMK SLP173
Loading
Personal Weather Stations






























Interactive Weather Map
Tropical Storm Tracking
New forecast layout! Learn more

10-Day Weather Forecast

Advertisements
Track Severe Weather on mobile